Terminal Aerodrome Forecast
Issued by NWS Corpus Christi, TX

Home | Current Version | Previous Version | Text Only | Print | Product List | Glossary On
Versions: 1 2 3 4 5 6 7 8 9 10 11 12
000
FTUS44 KCRP 111100
TAFVCT
TAF
KVCT 111122Z 1112/1212 VRB03KT P6SM SCT025
     FM111400 14008KT P6SM SCT035
     FM111800 15012G18KT P6SM FEW035 SCT150
     FM120000 15008KT P6SM FEW025 SCT150=

USA.gov is the U.S. government's official web portal to all federal, state and local government web resources and services.